createdAt,value
2017-03-22T00:00:23.943Z,98.1
2017-03-22T00:00:52.060Z,98.1
2017-03-22T00:01:20.082Z,98.29
2017-03-22T00:01:48.158Z,97.81
2017-03-22T00:02:16.258Z,97.91
2017-03-22T00:02:44.516Z,98
2017-03-22T00:03:12.815Z,98.19
2017-03-22T00:03:41.346Z,98.29
2017-03-22T00:04:09.431Z,98.29
2017-03-22T00:04:37.504Z,98.29
2017-03-22T00:05:05.651Z,98.29
2017-03-22T00:05:33.885Z,98.29
2017-03-22T00:06:02.182Z,98.68
2017-03-22T00:06:30.406Z,98.29
2017-03-22T00:06:58.542Z,98.29
2017-03-22T00:07:26.664Z,98.39
2017-03-22T00:07:54.704Z,98.19
2017-03-22T00:08:22.818Z,98.29
2017-03-22T00:08:51.067Z,98.29
2017-03-22T00:09:19.214Z,98.29
2017-03-22T00:09:47.399Z,98.48
2017-03-22T00:10:15.556Z,98.48
2017-03-22T00:10:43.809Z,98.48
2017-03-22T00:11:12.077Z,98.39
2017-03-22T00:11:40.301Z,98.48
2017-03-22T00:12:08.446Z,98.48
2017-03-22T00:12:36.603Z,99.06
2017-03-22T00:13:04.837Z,98.86
2017-03-22T00:13:33.094Z,98.86
2017-03-22T00:14:01.399Z,98.82
2017-03-22T00:14:29.459Z,98.86
2017-03-22T00:14:57.434Z,98.63
2017-03-22T00:15:25.594Z,98.72
2017-03-22T00:15:53.784Z,98.96
2017-03-22T00:16:22.044Z,99.35
2017-03-22T00:16:50.119Z,99.68
2017-03-22T00:17:18.303Z,99.73
2017-03-22T00:17:46.475Z,99.15
2017-03-22T00:18:14.712Z,99.44
2017-03-22T00:18:42.921Z,99.49
2017-03-22T00:19:11.076Z,99.73
2017-03-22T00:19:39.354Z,99.83
2017-03-22T00:20:07.588Z,99.73
2017-03-22T00:20:35.857Z,99.58
2017-03-22T00:21:03.965Z,99.92
2017-03-22T00:21:32.255Z,99.54
2017-03-22T00:22:00.489Z,99.73
2017-03-22T00:22:28.722Z,99.4
2017-03-22T00:22:56.725Z,99.54
2017-03-22T00:23:24.854Z,99.92
2017-03-22T00:23:53.182Z,99.92
2017-03-22T00:24:21.252Z,99.92
2017-03-22T00:24:49.477Z,99.63
2017-03-22T00:25:17.693Z,99.63
2017-03-22T00:25:45.852Z,99.83
2017-03-22T00:26:13.870Z,99.06
2017-03-22T00:26:42.036Z,99.35
2017-03-22T00:27:10.287Z,99.35
2017-03-22T00:27:38.360Z,99.25
2017-03-22T00:28:06.630Z,99.06
2017-03-22T00:28:34.803Z,98.68
2017-03-22T00:29:02.978Z,98.82
2017-03-22T00:29:31.223Z,99.35
2017-03-22T00:29:59.378Z,99.3
2017-03-22T00:30:27.610Z,99.35
2017-03-22T00:30:55.901Z,99.25
2017-03-22T00:31:24.210Z,98.96
2017-03-22T00:31:52.367Z,99.58
2017-03-22T00:32:20.487Z,99.63
2017-03-22T00:32:48.665Z,99.78
2017-03-22T00:33:16.823Z,99.78
2017-03-22T00:33:45.192Z,99.78
2017-03-22T00:34:13.346Z,99.49
2017-03-22T00:34:41.505Z,99.49
2017-03-22T00:35:09.700Z,99.49
2017-03-22T00:35:37.827Z,99.4
2017-03-22T00:36:05.886Z,99.87
2017-03-22T00:36:34.197Z,99.68
2017-03-22T00:37:02.428Z,99.97
2017-03-22T00:37:30.624Z,99.99
2017-03-22T00:37:58.892Z,99.99
2017-03-22T00:38:27.042Z,99.99
2017-03-22T00:38:55.227Z,99.99
2017-03-22T00:39:23.290Z,99.99
2017-03-22T00:39:51.425Z,99.99
2017-03-22T00:40:19.652Z,99.99
2017-03-22T00:40:47.851Z,99.99
2017-03-22T00:41:16.122Z,99.99
2017-03-22T00:41:44.241Z,99.99
2017-03-22T00:42:12.314Z,99.99
2017-03-22T00:42:40.526Z,99.99
2017-03-22T00:43:08.758Z,99.99
2017-03-22T00:43:36.972Z,99.99
2017-03-22T00:44:05.184Z,99.99
2017-03-22T00:44:33.428Z,99.99
2017-03-22T00:45:01.674Z,99.99
2017-03-22T00:45:29.771Z,99.99
2017-03-22T00:45:57.867Z,99.99
2017-03-22T00:46:26.038Z,99.99
2017-03-22T00:46:54.139Z,99.99
2017-03-22T00:47:22.262Z,99.99
2017-03-22T00:47:50.497Z,99.99
2017-03-22T00:48:18.668Z,99.99
2017-03-22T00:48:46.910Z,99.99
2017-03-22T00:49:15.076Z,99.99
2017-03-22T00:49:43.331Z,99.78
2017-03-22T00:50:11.584Z,99.99
2017-03-22T00:50:39.593Z,99.99
2017-03-22T00:51:07.856Z,99.99
2017-03-22T00:51:35.890Z,99.99
2017-03-22T00:52:04.167Z,99.99
2017-03-22T00:52:32.404Z,99.99
2017-03-22T00:53:00.618Z,99.99
2017-03-22T00:53:28.913Z,99.99
2017-03-22T00:53:57.234Z,99.99
2017-03-22T00:54:25.463Z,99.99
2017-03-22T00:54:53.670Z,99.99
2017-03-22T00:55:21.811Z,99.99
2017-03-22T00:55:50.000Z,99.99
2017-03-22T00:56:18.235Z,99.99
2017-03-22T00:56:46.499Z,99.78
2017-03-22T00:57:14.653Z,99.99
2017-03-22T00:57:42.767Z,99.99
2017-03-22T00:58:10.989Z,99.99
2017-03-22T00:58:39.217Z,99.99
2017-03-22T00:59:07.345Z,99.99
2017-03-22T00:59:35.611Z,99.99
2017-03-22T01:00:03.723Z,99.99
2017-03-22T01:00:31.996Z,99.99
2017-03-22T01:01:00.199Z,99.99
2017-03-22T01:01:28.470Z,99.99
2017-03-22T01:01:56.762Z,99.99
2017-03-22T01:02:24.884Z,99.99
2017-03-22T01:02:53.040Z,99.99
2017-03-22T01:03:21.078Z,99.99
2017-03-22T01:03:49.153Z,99.99
2017-03-22T01:04:17.410Z,99.99
2017-03-22T01:04:45.585Z,99.99
2017-03-22T01:05:13.717Z,99.99
2017-03-22T01:05:41.941Z,99.99
2017-03-22T01:06:10.061Z,99.99
2017-03-22T01:06:38.085Z,99.99
2017-03-22T01:07:06.310Z,99.99
2017-03-22T01:07:34.570Z,99.99
2017-03-22T01:08:02.725Z,99.99
2017-03-22T01:08:30.991Z,99.99
2017-03-22T01:08:59.320Z,99.99
2017-03-22T01:09:27.354Z,99.99
2017-03-22T01:09:55.642Z,99.99
2017-03-22T01:10:23.768Z,99.99
2017-03-22T01:10:52.041Z,99.99
2017-03-22T01:11:20.256Z,99.99
2017-03-22T01:11:48.473Z,99.99
2017-03-22T01:12:16.622Z,99.99
2017-03-22T01:12:44.841Z,99.99
2017-03-22T01:13:13.093Z,99.99
2017-03-22T01:13:41.282Z,99.99
2017-03-22T01:14:09.456Z,99.99
2017-03-22T01:14:37.597Z,99.99
2017-03-22T01:15:05.832Z,99.99
2017-03-22T01:15:34.086Z,99.99
2017-03-22T01:16:02.156Z,99.99
2017-03-22T01:16:30.266Z,99.99
2017-03-22T01:16:58.472Z,99.99
2017-03-22T01:17:26.747Z,99.99
2017-03-22T01:17:54.906Z,99.99
2017-03-22T01:18:23.142Z,99.99
2017-03-22T01:18:51.287Z,99.99
2017-03-22T01:19:19.624Z,99.99
2017-03-22T01:19:47.757Z,99.99
2017-03-22T01:20:15.841Z,99.99
2017-03-22T01:20:44.089Z,99.99
2017-03-22T01:21:12.120Z,99.99
2017-03-22T01:21:40.147Z,99.99
2017-03-22T01:22:08.383Z,99.99
2017-03-22T01:22:36.582Z,99.99
2017-03-22T01:23:04.825Z,99.99
2017-03-22T01:23:33.068Z,99.99
2017-03-22T01:24:01.241Z,99.99
2017-03-22T01:24:29.576Z,99.99
2017-03-22T01:24:57.750Z,99.99
2017-03-22T01:25:25.831Z,99.99
2017-03-22T01:25:54.046Z,99.99
2017-03-22T01:26:22.334Z,99.99
2017-03-22T01:26:50.600Z,99.99
2017-03-22T01:27:18.843Z,99.99
2017-03-22T01:27:46.967Z,99.99
2017-03-22T01:28:15.129Z,99.99
2017-03-22T01:28:43.351Z,99.99
2017-03-22T01:29:11.628Z,99.99
2017-03-22T01:29:39.705Z,99.99
2017-03-22T01:30:07.778Z,99.99
2017-03-22T01:30:35.910Z,99.99
2017-03-22T01:31:04.150Z,99.99
2017-03-22T01:31:32.258Z,99.99
2017-03-22T01:32:00.364Z,99.99
2017-03-22T01:32:28.530Z,99.99
2017-03-22T01:32:56.664Z,99.99
2017-03-22T01:33:24.706Z,99.99
2017-03-22T01:33:52.937Z,99.99
2017-03-22T01:34:21.239Z,99.99
2017-03-22T01:34:49.438Z,99.99
2017-03-22T01:35:17.701Z,99.99
2017-03-22T01:35:45.931Z,99.99
2017-03-22T01:36:14.103Z,99.99
2017-03-22T01:36:42.316Z,99.99
2017-03-22T01:37:10.262Z,99.99
2017-03-22T01:37:38.503Z,99.99
2017-03-22T01:38:06.717Z,99.99
2017-03-22T01:38:34.866Z,99.99
2017-03-22T01:39:02.896Z,99.99
2017-03-22T01:39:31.105Z,99.99
2017-03-22T01:39:59.263Z,99.99
2017-03-22T01:40:27.209Z,99.99
2017-03-22T01:40:55.435Z,99.99
2017-03-22T01:41:23.595Z,99.99
2017-03-22T01:41:51.622Z,99.99
2017-03-22T01:42:19.859Z,99.99
2017-03-22T01:42:48.027Z,99.99
2017-03-22T01:43:16.151Z,99.99
2017-03-22T01:43:44.273Z,99.99
2017-03-22T01:44:12.645Z,99.99
2017-03-22T01:44:40.920Z,99.99
2017-03-22T01:45:09.156Z,99.99
2017-03-22T01:45:37.259Z,99.99
2017-03-22T01:46:05.439Z,99.99
2017-03-22T01:46:33.619Z,99.99
2017-03-22T01:47:01.755Z,99.99
2017-03-22T01:47:29.991Z,99.99
2017-03-22T01:47:58.251Z,99.99
2017-03-22T01:48:26.293Z,99.99
2017-03-22T01:48:54.451Z,99.99
2017-03-22T01:49:22.800Z,99.99
2017-03-22T01:49:50.708Z,99.99
2017-03-22T01:50:18.668Z,99.99
2017-03-22T01:50:46.903Z,99.99
2017-03-22T01:51:15.128Z,99.99
2017-03-22T01:51:43.381Z,99.99
2017-03-22T01:52:11.610Z,99.99
2017-03-22T01:52:39.689Z,99.99
2017-03-22T01:53:07.985Z,99.99
2017-03-22T01:53:36.040Z,99.99
2017-03-22T01:54:04.273Z,99.99
2017-03-22T01:54:32.392Z,99.99
2017-03-22T01:55:00.516Z,99.99
2017-03-22T01:55:28.720Z,99.99
2017-03-22T01:55:56.929Z,99.99
2017-03-22T01:56:25.087Z,99.99
2017-03-22T01:56:53.318Z,99.99
2017-03-22T01:57:21.529Z,99.99
2017-03-22T01:57:49.584Z,99.99
2017-03-22T01:58:17.729Z,99.99
2017-03-22T01:58:45.935Z,99.99
2017-03-22T01:59:14.002Z,99.99
2017-03-22T01:59:42.333Z,99.99
2017-03-22T02:00:10.446Z,99.99
2017-03-22T02:00:38.702Z,99.99
2017-03-22T02:01:06.854Z,99.99
2017-03-22T02:01:35.115Z,99.99
2017-03-22T02:02:03.267Z,99.99
2017-03-22T02:02:31.445Z,99.99
2017-03-22T02:02:59.723Z,99.99
2017-03-22T02:03:27.888Z,99.99
2017-03-22T02:03:56.207Z,99.99
2017-03-22T02:04:24.419Z,99.99
2017-03-22T02:04:52.702Z,99.99
2017-03-22T02:05:20.864Z,99.99
2017-03-22T02:05:49.004Z,99.99
2017-03-22T02:06:17.139Z,99.99
2017-03-22T02:06:45.391Z,99.99
2017-03-22T02:07:13.643Z,99.99
2017-03-22T02:07:41.800Z,99.99
2017-03-22T02:08:10.018Z,99.99
2017-03-22T02:08:38.069Z,99.99
2017-03-22T02:09:06.169Z,99.99
2017-03-22T02:09:34.414Z,99.99
2017-03-22T02:10:02.674Z,99.99
2017-03-22T02:10:30.930Z,99.99
2017-03-22T02:10:59.155Z,99.99
2017-03-22T02:11:27.389Z,99.99
2017-03-22T02:11:55.698Z,99.99
2017-03-22T02:12:23.748Z,99.99
2017-03-22T02:12:52.023Z,99.99
2017-03-22T02:13:20.208Z,99.99
2017-03-22T02:13:48.264Z,99.99
2017-03-22T02:14:16.503Z,99.99
2017-03-22T02:14:44.569Z,99.99
2017-03-22T02:15:12.523Z,99.99
2017-03-22T02:15:40.672Z,99.99
2017-03-22T02:16:08.959Z,99.99
2017-03-22T02:16:37.110Z,99.99
2017-03-22T02:17:05.350Z,99.99
2017-03-22T02:17:33.508Z,99.99
2017-03-22T02:18:01.732Z,99.99
2017-03-22T02:18:30.064Z,99.99
2017-03-22T02:18:58.386Z,99.99
2017-03-22T02:19:26.643Z,99.99
2017-03-22T02:19:54.921Z,99.99
2017-03-22T02:20:23.175Z,99.99
2017-03-22T02:20:51.122Z,99.99
2017-03-22T02:21:19.267Z,99.99
2017-03-22T02:21:47.324Z,99.99
2017-03-22T02:22:15.500Z,99.99
2017-03-22T02:22:43.690Z,99.99
2017-03-22T02:23:11.928Z,99.99
2017-03-22T02:23:40.154Z,99.99
2017-03-22T02:24:08.422Z,99.99
2017-03-22T02:24:36.817Z,99.99
2017-03-22T02:25:05.111Z,99.99
2017-03-22T02:25:33.366Z,99.99
2017-03-22T02:26:01.613Z,99.99
2017-03-22T02:26:29.710Z,99.99
2017-03-22T02:26:57.934Z,99.99
2017-03-22T02:27:26.104Z,99.99
2017-03-22T02:27:54.231Z,99.99
2017-03-22T02:28:22.436Z,99.99
2017-03-22T02:28:50.659Z,99.99
2017-03-22T02:29:18.938Z,99.99
2017-03-22T02:29:47.119Z,99.99
2017-03-22T02:30:15.264Z,99.99
2017-03-22T02:30:43.506Z,99.99
2017-03-22T02:31:11.687Z,99.99
2017-03-22T02:31:39.898Z,99.99
2017-03-22T02:32:07.936Z,99.99
2017-03-22T02:32:36.144Z,99.99
2017-03-22T02:33:04.314Z,99.99
2017-03-22T02:33:32.584Z,99.99
2017-03-22T02:34:00.752Z,99.99
2017-03-22T02:34:28.866Z,99.99
2017-03-22T02:34:57.160Z,99.99
2017-03-22T02:35:25.376Z,99.99
2017-03-22T02:35:53.497Z,99.99
2017-03-22T02:36:21.811Z,99.99
2017-03-22T02:36:50.065Z,99.99
2017-03-22T02:37:18.146Z,99.99
2017-03-22T02:37:46.298Z,99.99
2017-03-22T02:38:14.478Z,99.99
2017-03-22T02:38:42.694Z,99.99
2017-03-22T02:39:10.813Z,99.99
2017-03-22T02:39:39.149Z,99.99
2017-03-22T02:40:07.289Z,99.99
2017-03-22T02:40:35.443Z,99.99
2017-03-22T02:41:03.674Z,99.99
2017-03-22T02:41:31.762Z,99.99
2017-03-22T02:42:00.007Z,99.99
2017-03-22T02:42:28.253Z,99.99
2017-03-22T02:42:56.391Z,99.99
2017-03-22T02:43:24.489Z,99.99
2017-03-22T02:43:52.716Z,99.99
2017-03-22T02:44:20.892Z,99.99
2017-03-22T02:44:49.270Z,99.99
2017-03-22T02:45:17.343Z,99.99
2017-03-22T02:45:45.514Z,99.99
2017-03-22T02:46:13.696Z,99.99
2017-03-22T02:46:41.945Z,99.99
2017-03-22T02:47:10.163Z,99.99
2017-03-22T02:47:38.309Z,99.99
2017-03-22T02:48:06.535Z,99.99
2017-03-22T02:48:34.725Z,99.99
2017-03-22T02:49:02.998Z,99.99
2017-03-22T02:49:31.158Z,99.99
2017-03-22T02:49:59.372Z,99.99
2017-03-22T02:50:27.681Z,99.99
2017-03-22T02:50:55.841Z,99.99
2017-03-22T02:51:23.978Z,99.99
2017-03-22T02:51:52.276Z,99.99
2017-03-22T02:52:20.341Z,99.99
2017-03-22T02:52:48.363Z,99.99
2017-03-22T02:53:16.530Z,99.99
2017-03-22T02:53:44.767Z,99.99
2017-03-22T02:54:13.005Z,99.99
2017-03-22T02:54:40.965Z,99.99
2017-03-22T02:55:09.361Z,99.99
2017-03-22T02:55:37.500Z,99.99
2017-03-22T02:56:05.754Z,99.99
2017-03-22T02:56:33.984Z,99.99
2017-03-22T02:57:02.271Z,99.99
2017-03-22T02:57:30.456Z,99.99
2017-03-22T02:57:58.711Z,99.99
2017-03-22T02:58:26.968Z,99.99
2017-03-22T02:58:55.255Z,99.99
2017-03-22T02:59:23.382Z,99.99
2017-03-22T02:59:51.502Z,99.99
2017-03-22T03:00:19.517Z,99.99
2017-03-22T03:00:47.623Z,99.99
2017-03-22T03:01:15.872Z,99.99
2017-03-22T03:01:44.019Z,99.99
2017-03-22T03:02:12.159Z,99.99
2017-03-22T03:02:40.410Z,99.99
2017-03-22T03:03:08.584Z,99.99
2017-03-22T03:03:36.731Z,99.99
2017-03-22T03:04:04.835Z,99.99
2017-03-22T03:04:33.063Z,99.99
2017-03-22T03:05:01.228Z,99.99
2017-03-22T03:05:29.285Z,99.99
2017-03-22T03:05:57.335Z,99.99
2017-03-22T03:06:25.482Z,99.99
2017-03-22T03:06:53.724Z,99.99
2017-03-22T03:07:21.866Z,99.99
2017-03-22T03:07:49.988Z,99.99
2017-03-22T03:08:18.053Z,99.99
2017-03-22T03:08:46.347Z,99.99
2017-03-22T03:09:14.551Z,99.99
2017-03-22T03:09:42.802Z,99.99
2017-03-22T03:10:11.068Z,99.99
2017-03-22T03:10:39.099Z,99.99
2017-03-22T03:11:07.293Z,99.99
2017-03-22T03:11:35.345Z,99.99
2017-03-22T03:12:03.501Z,99.99
2017-03-22T03:12:31.620Z,99.99
2017-03-22T03:12:59.831Z,99.99
2017-03-22T03:13:28.083Z,99.99
2017-03-22T03:13:56.258Z,99.99
2017-03-22T03:14:24.439Z,99.99
2017-03-22T03:14:52.647Z,99.99
2017-03-22T03:15:20.869Z,99.99
2017-03-22T03:15:49.110Z,99.99
2017-03-22T03:16:17.400Z,99.99
2017-03-22T03:16:45.578Z,99.99
2017-03-22T03:17:13.811Z,99.99
2017-03-22T03:17:42.003Z,99.99
2017-03-22T03:18:10.146Z,99.99
2017-03-22T03:18:38.364Z,99.99
2017-03-22T03:19:06.596Z,99.99
2017-03-22T03:19:34.721Z,99.99
2017-03-22T03:20:03.099Z,99.99
2017-03-22T03:20:31.317Z,99.99
2017-03-22T03:20:59.560Z,99.99
2017-03-22T03:21:27.729Z,99.99
2017-03-22T03:21:55.975Z,99.99
2017-03-22T03:22:24.208Z,99.99
2017-03-22T03:22:52.443Z,99.99
2017-03-22T03:23:20.508Z,99.99
2017-03-22T03:23:48.593Z,99.99
2017-03-22T03:24:16.601Z,99.99
2017-03-22T03:24:44.836Z,99.99
2017-03-22T03:25:13.071Z,99.99
2017-03-22T03:25:41.230Z,99.99
2017-03-22T03:26:09.489Z,99.99
2017-03-22T03:26:37.747Z,99.99
2017-03-22T03:27:05.979Z,99.99
2017-03-22T03:27:34.231Z,99.99
2017-03-22T03:28:02.376Z,99.99
2017-03-22T03:28:30.612Z,99.99
2017-03-22T03:28:58.903Z,99.99
2017-03-22T03:29:27.142Z,99.99
2017-03-22T03:29:55.384Z,99.99
2017-03-22T03:30:23.584Z,99.99
2017-03-22T03:30:51.891Z,99.99
2017-03-22T03:31:20.038Z,99.99
2017-03-22T03:31:48.237Z,99.99
2017-03-22T03:32:16.413Z,99.99
2017-03-22T03:32:44.617Z,99.99
2017-03-22T03:33:12.784Z,99.99
2017-03-22T03:33:40.988Z,99.99
2017-03-22T03:34:09.135Z,99.99
2017-03-22T03:34:37.165Z,99.99
2017-03-22T03:35:05.575Z,99.99
2017-03-22T03:35:33.733Z,99.99
2017-03-22T03:36:01.898Z,99.99
2017-03-22T03:36:29.921Z,99.99
2017-03-22T03:36:58.231Z,99.99
2017-03-22T03:37:26.497Z,99.99
2017-03-22T03:37:54.740Z,99.99
2017-03-22T03:38:22.989Z,99.99
2017-03-22T03:38:51.234Z,99.99
2017-03-22T03:39:19.465Z,99.99
2017-03-22T03:39:47.695Z,99.99
2017-03-22T03:40:16.001Z,99.99
2017-03-22T03:40:44.203Z,99.99
2017-03-22T03:41:12.441Z,99.99
2017-03-22T03:41:40.665Z,99.99
2017-03-22T03:42:09.010Z,99.99
2017-03-22T03:42:37.196Z,99.99
2017-03-22T03:43:05.605Z,99.99
2017-03-22T03:43:33.884Z,99.99
2017-03-22T03:44:02.105Z,99.99
2017-03-22T03:44:30.355Z,99.99
2017-03-22T03:44:58.510Z,99.99
2017-03-22T03:45:26.919Z,99.99
2017-03-22T03:45:55.089Z,99.99
2017-03-22T03:46:23.199Z,99.99
2017-03-22T03:46:51.528Z,99.99
2017-03-22T03:47:19.677Z,99.99
2017-03-22T03:47:47.847Z,99.99
2017-03-22T03:48:16.143Z,99.99
2017-03-22T03:48:44.083Z,99.99
2017-03-22T03:49:12.413Z,99.99
2017-03-22T03:49:40.657Z,99.99
2017-03-22T03:50:08.937Z,99.99
2017-03-22T03:50:37.300Z,99.99
2017-03-22T03:51:05.239Z,99.99
2017-03-22T03:51:33.444Z,99.99
2017-03-22T03:52:01.536Z,99.99
2017-03-22T03:52:29.740Z,99.99
2017-03-22T03:52:57.948Z,99.99
2017-03-22T03:53:26.341Z,99.99
2017-03-22T03:53:54.571Z,99.99
2017-03-22T03:54:22.779Z,99.99
2017-03-22T03:54:50.978Z,99.99
2017-03-22T03:55:19.442Z,99.99
2017-03-22T03:55:47.728Z,99.99
2017-03-22T03:56:15.997Z,99.99
2017-03-22T03:56:44.152Z,99.99
2017-03-22T03:57:12.448Z,99.99
2017-03-22T03:57:40.575Z,99.99
2017-03-22T03:58:08.819Z,99.99
2017-03-22T03:58:36.964Z,99.99
2017-03-22T03:59:05.246Z,99.99
2017-03-22T03:59:33.346Z,99.99
2017-03-22T04:00:01.659Z,99.99
2017-03-22T04:00:29.916Z,99.99
2017-03-22T04:00:58.086Z,99.99
2017-03-22T04:01:26.334Z,99.99
2017-03-22T04:01:54.575Z,99.99
2017-03-22T04:02:22.661Z,99.99
2017-03-22T04:02:50.896Z,99.99
2017-03-22T04:03:19.272Z,99.99
2017-03-22T04:03:47.406Z,99.99
2017-03-22T04:04:15.663Z,99.99
2017-03-22T04:04:43.922Z,99.99
2017-03-22T04:05:12.196Z,99.99
2017-03-22T04:05:40.473Z,99.99
2017-03-22T04:06:08.640Z,99.99
2017-03-22T04:06:36.921Z,99.99
2017-03-22T04:07:05.008Z,99.99
2017-03-22T04:07:33.247Z,99.99
2017-03-22T04:08:01.629Z,99.99
2017-03-22T04:08:29.814Z,99.99
2017-03-22T04:08:57.969Z,99.99
2017-03-22T04:09:26.187Z,99.99
2017-03-22T04:09:54.596Z,99.99
2017-03-22T04:10:22.765Z,99.99
2017-03-22T04:10:51.039Z,99.99
2017-03-22T04:11:19.343Z,99.99
2017-03-22T04:11:47.672Z,99.99
2017-03-22T04:12:15.806Z,99.99
2017-03-22T04:12:43.955Z,99.99
2017-03-22T04:13:12.236Z,99.99
2017-03-22T04:13:40.500Z,99.99
2017-03-22T04:14:08.654Z,99.99
2017-03-22T04:14:36.958Z,99.99
2017-03-22T04:15:05.220Z,99.99
2017-03-22T04:15:33.601Z,99.99
2017-03-22T04:16:01.849Z,99.99
2017-03-22T04:16:30.016Z,99.99
2017-03-22T04:16:58.240Z,99.99
2017-03-22T04:17:26.491Z,99.99
2017-03-22T04:17:54.647Z,99.99
2017-03-22T04:18:22.807Z,99.99
2017-03-22T04:18:51.062Z,99.99
2017-03-22T04:19:19.207Z,99.99
2017-03-22T04:19:47.428Z,99.99
2017-03-22T04:20:15.651Z,99.99
2017-03-22T04:20:44.005Z,99.99
2017-03-22T04:21:12.231Z,99.99
2017-03-22T04:21:40.479Z,99.99
2017-03-22T04:22:08.714Z,99.99
2017-03-22T04:22:37.005Z,99.99
2017-03-22T04:23:05.158Z,99.99
2017-03-22T04:23:33.392Z,99.99
2017-03-22T04:24:01.650Z,99.99
2017-03-22T04:24:29.724Z,99.99
2017-03-22T04:24:57.760Z,99.99
2017-03-22T04:25:26.262Z,99.99
2017-03-22T04:25:54.599Z,99.99
2017-03-22T04:26:22.836Z,99.99
2017-03-22T04:26:51.103Z,99.99
2017-03-22T04:27:19.342Z,99.99
2017-03-22T04:27:47.570Z,99.99
2017-03-22T04:28:15.601Z,99.99
2017-03-22T04:28:43.760Z,99.99
2017-03-22T04:29:12.116Z,99.99
2017-03-22T04:29:40.400Z,99.99
2017-03-22T04:30:08.697Z,99.99
2017-03-22T04:30:36.994Z,99.99
2017-03-22T04:31:05.186Z,99.99
2017-03-22T04:31:33.487Z,99.99
2017-03-22T04:32:01.704Z,99.99
2017-03-22T04:32:29.946Z,99.99
2017-03-22T04:32:58.029Z,99.99
2017-03-22T04:33:26.221Z,99.99
2017-03-22T04:33:54.479Z,99.63
2017-03-22T04:34:22.740Z,99.99
2017-03-22T04:34:50.919Z,99.54
2017-03-22T04:35:19.162Z,99.97
2017-03-22T04:35:47.580Z,99.92
2017-03-22T04:36:15.578Z,99.82
2017-03-22T04:36:43.635Z,99.97
2017-03-22T04:37:11.674Z,99.87
2017-03-22T04:37:39.814Z,99.92
2017-03-22T04:38:07.943Z,99.63
2017-03-22T04:38:36.299Z,99.97
2017-03-22T04:39:04.563Z,99.68
2017-03-22T04:39:32.743Z,99.25
2017-03-22T04:40:00.966Z,99.25
2017-03-22T04:40:29.303Z,99.34
2017-03-22T04:40:57.702Z,99.73
2017-03-22T04:41:25.877Z,99.82
2017-03-22T04:41:54.228Z,99.92
2017-03-22T04:42:22.498Z,99.92
2017-03-22T04:42:50.652Z,99.92
2017-03-22T04:43:18.899Z,99.82
2017-03-22T04:43:47.159Z,99.82
2017-03-22T04:44:15.331Z,99.82
2017-03-22T04:44:43.429Z,99.99
2017-03-22T04:45:11.667Z,99.99
2017-03-22T04:45:39.839Z,99.99
2017-03-22T04:46:08.279Z,99.99
2017-03-22T04:46:36.496Z,99.82
2017-03-22T04:47:04.507Z,99.99
2017-03-22T04:47:32.662Z,99.99
2017-03-22T04:48:00.949Z,99.99
2017-03-22T04:48:29.215Z,99.82
2017-03-22T04:48:57.477Z,99.82
2017-03-22T04:49:25.618Z,99.99
2017-03-22T04:49:53.772Z,99.99
2017-03-22T04:50:21.994Z,99.99
2017-03-22T04:50:50.142Z,99.92
2017-03-22T04:51:18.574Z,99.82
2017-03-22T04:51:46.750Z,99.92
2017-03-22T04:52:14.883Z,99.25
2017-03-22T04:52:43.035Z,99.34
2017-03-22T04:53:11.266Z,99.73
2017-03-22T04:53:39.536Z,99.73
2017-03-22T04:54:07.782Z,99.82
2017-03-22T04:54:36.014Z,99.73
2017-03-22T04:55:04.274Z,99.73
2017-03-22T04:55:32.533Z,99.63
2017-03-22T04:56:00.617Z,99.73
2017-03-22T04:56:28.865Z,99.63
2017-03-22T04:56:56.947Z,99.54
2017-03-22T04:57:25.114Z,99.92
2017-03-22T04:57:53.224Z,99.92
2017-03-22T04:58:21.466Z,99.82
2017-03-22T04:58:49.727Z,99.73
2017-03-22T04:59:17.887Z,99.99
2017-03-22T04:59:46.081Z,99.99
2017-03-22T05:00:14.327Z,99.99
2017-03-22T05:00:42.457Z,99.99
2017-03-22T05:01:10.878Z,99.99
2017-03-22T05:01:39.035Z,99.99
2017-03-22T05:02:07.097Z,99.99
2017-03-22T05:02:35.243Z,99.99
2017-03-22T05:03:03.716Z,99.99
2017-03-22T05:03:31.862Z,99.99
2017-03-22T05:03:59.975Z,99.99
2017-03-22T05:04:27.922Z,99.99
2017-03-22T05:04:56.094Z,99.99
2017-03-22T05:05:24.329Z,99.99
2017-03-22T05:05:52.340Z,99.99
2017-03-22T05:06:20.789Z,99.99
2017-03-22T05:06:48.924Z,99.99
2017-03-22T05:07:17.173Z,99.99
2017-03-22T05:07:45.308Z,99.99
2017-03-22T05:08:13.481Z,99.99
2017-03-22T05:08:41.728Z,99.99
2017-03-22T05:09:09.821Z,99.99
2017-03-22T05:09:37.970Z,99.99
2017-03-22T05:10:06.100Z,99.99
2017-03-22T05:10:34.187Z,99.99
2017-03-22T05:11:02.402Z,99.99
2017-03-22T05:11:30.968Z,99.99
2017-03-22T05:11:59.100Z,99.99
2017-03-22T05:12:27.374Z,99.99
2017-03-22T05:12:55.658Z,99.99
2017-03-22T05:13:23.834Z,99.99
2017-03-22T05:13:52.096Z,99.99
2017-03-22T05:14:20.282Z,99.99
2017-03-22T05:14:48.540Z,99.99
2017-03-22T05:15:16.683Z,99.99
2017-03-22T05:15:44.840Z,99.99
2017-03-22T05:16:12.963Z,99.99
2017-03-22T05:16:41.294Z,99.99
2017-03-22T05:17:09.361Z,99.99
2017-03-22T05:17:37.597Z,99.99
2017-03-22T05:18:05.855Z,99.99
2017-03-22T05:18:34.050Z,99.99
2017-03-22T05:19:02.103Z,99.99
2017-03-22T05:19:30.180Z,99.99
2017-03-22T05:19:58.455Z,99.99
2017-03-22T05:20:26.599Z,99.99
2017-03-22T05:20:54.849Z,99.99
2017-03-22T05:21:23.100Z,99.99
2017-03-22T05:21:51.318Z,99.99
2017-03-22T05:22:19.536Z,99.99
2017-03-22T05:22:47.763Z,99.99
2017-03-22T05:23:15.832Z,99.99
2017-03-22T05:23:44.053Z,99.99
2017-03-22T05:24:12.186Z,99.99
2017-03-22T05:24:40.323Z,99.99
2017-03-22T05:25:08.455Z,99.99
2017-03-22T05:25:36.626Z,99.99
2017-03-22T05:26:04.947Z,99.99
2017-03-22T05:26:33.203Z,99.99
2017-03-22T05:27:01.403Z,99.99
2017-03-22T05:27:29.634Z,99.99
2017-03-22T05:27:57.840Z,99.99
2017-03-22T05:28:25.961Z,99.99
2017-03-22T05:28:54.009Z,99.99
2017-03-22T05:29:22.122Z,99.99
2017-03-22T05:29:50.287Z,99.99
2017-03-22T05:30:18.421Z,99.99
2017-03-22T05:30:46.629Z,99.99
2017-03-22T05:31:14.865Z,99.99
2017-03-22T05:31:43.101Z,99.99
2017-03-22T05:32:11.147Z,99.99
2017-03-22T05:32:39.354Z,99.99
2017-03-22T05:33:07.585Z,99.99
2017-03-22T05:33:35.577Z,99.99
2017-03-22T05:34:03.839Z,99.99
2017-03-22T05:34:31.986Z,99.99
2017-03-22T05:35:00.244Z,99.99
2017-03-22T05:35:28.373Z,99.99
2017-03-22T05:35:56.608Z,99.99
2017-03-22T05:36:24.829Z,99.99
2017-03-22T05:36:52.949Z,99.99
2017-03-22T05:37:21.233Z,99.99
2017-03-22T05:37:49.522Z,99.99
2017-03-22T05:38:17.792Z,99.99
2017-03-22T05:38:46.042Z,99.99
2017-03-22T05:39:14.242Z,99.99
2017-03-22T05:39:42.440Z,99.99
2017-03-22T05:40:10.665Z,99.99
2017-03-22T05:40:38.930Z,99.99
2017-03-22T05:41:07.058Z,99.99
2017-03-22T05:41:35.217Z,99.99
2017-03-22T05:42:03.428Z,99.99
2017-03-22T05:42:31.646Z,99.99
2017-03-22T05:42:59.761Z,99.99
2017-03-22T05:43:27.923Z,99.99
2017-03-22T05:43:55.977Z,99.99
2017-03-22T05:44:24.026Z,99.99
2017-03-22T05:44:52.104Z,99.99
2017-03-22T05:45:20.310Z,99.99
2017-03-22T05:45:48.562Z,99.99
2017-03-22T05:46:17.011Z,99.99
2017-03-22T05:46:45.198Z,99.99
2017-03-22T05:47:13.336Z,99.99
2017-03-22T05:47:41.436Z,99.99
2017-03-22T05:48:09.647Z,99.99
2017-03-22T05:48:37.890Z,99.99
2017-03-22T05:49:05.988Z,99.99
2017-03-22T05:49:34.032Z,99.99
2017-03-22T05:50:02.182Z,99.99
2017-03-22T05:50:30.350Z,99.99
2017-03-22T05:50:58.564Z,99.99
2017-03-22T05:51:26.889Z,99.99
2017-03-22T05:51:55.006Z,99.99
2017-03-22T05:52:23.075Z,99.99
2017-03-22T05:52:51.115Z,99.99
2017-03-22T05:53:19.260Z,99.99
2017-03-22T05:53:47.510Z,99.99
2017-03-22T05:54:15.784Z,99.99
2017-03-22T05:54:43.853Z,99.99
2017-03-22T05:55:12.087Z,99.99
2017-03-22T05:55:40.307Z,99.99
2017-03-22T05:56:08.448Z,99.99
2017-03-22T05:56:36.799Z,99.99
2017-03-22T05:57:04.916Z,99.99
2017-03-22T05:57:33.148Z,99.99
2017-03-22T05:58:01.406Z,99.99
2017-03-22T05:58:29.556Z,99.99
2017-03-22T05:58:57.609Z,99.99
2017-03-22T05:59:25.778Z,99.99
2017-03-22T05:59:54.012Z,99.99
2017-03-22T06:00:22.087Z,99.99
2017-03-22T06:00:50.337Z,99.99
2017-03-22T06:01:18.600Z,99.99
2017-03-22T06:01:46.841Z,99.99
2017-03-22T06:02:15.025Z,99.99
2017-03-22T06:02:43.264Z,99.99
2017-03-22T06:03:11.208Z,99.99